createdAt,value
2019-01-31T00:04:44.732Z,108.63
2019-01-31T00:07:31.711Z,105.10
2019-01-31T00:10:18.792Z,105.60
2019-01-31T00:13:05.962Z,106.53
2019-01-31T00:15:53.027Z,109.30
2019-01-31T00:18:40.066Z,107.87
2019-01-31T00:21:11.868Z,108.40
2019-01-31T00:23:58.833Z,109.40
2019-01-31T00:26:45.925Z,109.50
2019-01-31T00:29:20.594Z,109.80
2019-01-31T00:32:07.560Z,109.72
2019-01-31T00:34:54.512Z,106.40
2019-01-31T00:37:41.848Z,113.37
2019-01-31T00:40:28.795Z,109.78
2019-01-31T00:43:15.935Z,104.30
2019-01-31T00:46:02.884Z,108.65
2019-01-31T00:48:35.067Z,113.40
2019-01-31T00:51:22.131Z,111.90
2019-01-31T00:54:09.414Z,108.35
2019-01-31T00:56:56.362Z,110.50
2019-01-31T00:59:43.369Z,114.82
2019-01-31T01:02:25.153Z,109.75
2019-01-31T01:05:12.086Z,109.95
2019-01-31T01:07:59.081Z,115.50
2019-01-31T01:10:30.011Z,111.32
2019-01-31T01:13:17.340Z,111.65
2019-01-31T01:15:52.031Z,110.72
2019-01-31T01:18:32.574Z,114.70
2019-01-31T01:21:19.603Z,111.30
2019-01-31T01:23:54.772Z,112.10
2019-01-31T01:26:41.807Z,114.97
2019-01-31T01:29:28.862Z,112.10
2019-01-31T01:32:15.857Z,109.48
2019-01-31T01:35:02.893Z,114.10
2019-01-31T01:37:50.000Z,112.80
2019-01-31T01:40:37.007Z,115.03
2019-01-31T01:43:17.471Z,112.55
2019-01-31T01:46:04.563Z,113.08
2019-01-31T01:48:35.501Z,113.80
2019-01-31T01:51:22.564Z,109.25
2019-01-31T01:53:54.680Z,109.07
2019-01-31T01:56:25.387Z,109.75
2019-01-31T01:59:12.356Z,109.92
2019-01-31T02:01:59.387Z,109.03
2019-01-31T02:04:31.800Z,112.47
2019-01-31T02:07:18.724Z,114.57
2019-01-31T02:10:05.755Z,112.80
2019-01-31T02:12:52.783Z,114.52
2019-01-31T02:15:26.353Z,119.93
2019-01-31T02:17:58.727Z,114.57
2019-01-31T02:20:45.700Z,115.95
2019-01-31T02:23:32.826Z,107.27
2019-01-31T02:26:19.901Z,108.97
2019-01-31T02:29:06.861Z,107.75
2019-01-31T02:31:54.169Z,111.55
2019-01-31T02:34:41.269Z,103.75
2019-01-31T02:37:28.357Z,115.55
2019-01-31T02:40:15.310Z,104.53
2019-01-31T02:45:56.610Z,119.08
2019-01-31T02:48:43.922Z,108.87
2019-01-31T02:51:17.978Z,109.90
2019-01-31T02:53:53.344Z,108.07
2019-01-31T02:56:40.293Z,114.70
2019-01-31T02:59:27.276Z,112.15
2019-01-31T03:02:14.404Z,108.25
2019-01-31T03:04:46.752Z,112.65
2019-01-31T03:07:33.710Z,116.10
2019-01-31T03:10:08.888Z,108.80
2019-01-31T03:12:55.842Z,111.77
2019-01-31T03:15:30.729Z,109.12
2019-01-31T03:18:17.758Z,113.12
2019-01-31T03:21:04.824Z,108.63
2019-01-31T03:23:51.857Z,113.00
2019-01-31T03:26:38.884Z,108.17
2019-01-31T03:29:25.914Z,110.28
2019-01-31T03:32:13.268Z,110.52
2019-01-31T03:35:00.418Z,107.27
2019-01-31T03:37:47.523Z,109.52
2019-01-31T03:40:34.489Z,112.45
2019-01-31T03:46:15.701Z,114.62
2019-01-31T03:48:46.679Z,114.17
2019-01-31T03:51:17.094Z,116.22
2019-01-31T03:54:04.226Z,118.37
2019-01-31T03:56:51.332Z,117.17
2019-01-31T03:59:38.279Z,106.90
2019-01-31T04:02:25.265Z,110.97
2019-01-31T04:04:56.402Z,115.47
2019-01-31T04:07:24.434Z,116.28
2019-01-31T04:09:52.407Z,113.55
2019-01-31T04:12:20.381Z,117.80
2019-01-31T04:14:48.336Z,117.35
2019-01-31T04:17:16.284Z,121.07
2019-01-31T04:19:44.286Z,109.22
2019-01-31T04:22:12.323Z,106.60
2019-01-31T04:24:40.325Z,111.60
2019-01-31T04:27:08.295Z,107.30
2019-01-31T04:29:36.244Z,108.65
2019-01-31T04:32:04.218Z,109.97
2019-01-31T04:34:32.218Z,111.20
2019-01-31T04:37:00.258Z,112.57
2019-01-31T04:39:28.232Z,109.87
2019-01-31T04:41:56.213Z,117.87
2019-01-31T04:44:24.173Z,111.65
2019-01-31T04:46:52.352Z,106.07
2019-01-31T04:49:20.296Z,112.17
2019-01-31T04:51:48.315Z,106.22
2019-01-31T04:54:16.268Z,103.47
2019-01-31T04:56:44.203Z,111.97
2019-01-31T04:59:12.204Z,111.92
2019-01-31T05:01:40.166Z,113.32
2019-01-31T05:04:08.140Z,114.17
2019-01-31T05:06:36.244Z,112.72
2019-01-31T05:09:26.585Z,112.52
2019-01-31T05:11:54.617Z,108.25
2019-01-31T05:14:22.625Z,112.65
2019-01-31T05:16:50.620Z,122.25
2019-01-31T05:19:37.562Z,117.77
2019-01-31T05:22:05.549Z,109.35
2019-01-31T05:24:33.566Z,121.35
2019-01-31T05:27:04.367Z,269.15
2019-01-31T05:29:31.233Z,264.35
2019-01-31T05:31:59.188Z,231.28
2019-01-31T05:34:27.188Z,195.85
2019-01-31T05:36:55.141Z,213.12
2019-01-31T05:39:23.106Z,151.45
2019-01-31T05:41:51.361Z,149.68
2019-01-31T05:44:19.474Z,209.67
2019-01-31T05:46:47.433Z,157.70
2019-01-31T05:49:15.508Z,158.85
2019-01-31T05:51:43.455Z,148.78
2019-01-31T05:54:11.454Z,208.23
2019-01-31T05:56:39.419Z,156.97
2019-01-31T05:59:07.373Z,132.57
2019-01-31T06:01:35.365Z,133.15
2019-01-31T06:04:03.320Z,142.77
2019-01-31T06:06:31.282Z,149.50
2019-01-31T06:08:59.370Z,148.30
2019-01-31T06:11:27.316Z,195.87
2019-01-31T06:13:55.410Z,213.92
2019-01-31T06:16:23.388Z,217.70
2019-01-31T06:18:51.344Z,202.10
2019-01-31T06:21:19.421Z,207.07
2019-01-31T06:23:47.396Z,179.42
2019-01-31T06:26:15.339Z,152.75
2019-01-31T06:28:43.273Z,180.63
2019-01-31T06:31:11.202Z,160.90
2019-01-31T06:33:39.159Z,135.88
2019-01-31T06:36:07.253Z,128.12
2019-01-31T06:38:35.332Z,127.15
2019-01-31T06:41:03.271Z,140.20
2019-01-31T06:43:31.373Z,133.63
2019-01-31T06:45:59.412Z,132.25
2019-01-31T06:48:27.482Z,133.20
2019-01-31T06:50:55.448Z,123.65
2019-01-31T06:53:23.445Z,145.12
2019-01-31T06:55:51.416Z,127.10
2019-01-31T06:58:19.405Z,187.18
2019-01-31T07:00:47.428Z,179.65
2019-01-31T07:03:15.406Z,153.23
2019-01-31T07:05:43.381Z,140.70
2019-01-31T07:08:11.643Z,126.22
2019-01-31T07:10:39.585Z,174.45
2019-01-31T07:13:07.556Z,141.82
2019-01-31T07:15:35.566Z,121.72
2019-01-31T07:18:03.528Z,129.50
2019-01-31T07:20:31.511Z,126.65
2019-01-31T07:22:59.422Z,122.30
2019-01-31T07:25:27.425Z,126.87
2019-01-31T07:27:55.862Z,138.28
2019-01-31T07:30:26.691Z,122.53
2019-01-31T07:32:53.610Z,136.30
2019-01-31T07:35:21.544Z,123.38
2019-01-31T07:37:49.507Z,145.43
2019-01-31T07:40:18.333Z,123.67
2019-01-31T07:42:46.356Z,122.35
2019-01-31T07:45:15.998Z,122.42
2019-01-31T07:47:44.072Z,119.93
2019-01-31T07:50:32.910Z,122.90
2019-01-31T07:53:00.903Z,116.88
2019-01-31T07:58:16.047Z,126.85
2019-01-31T08:00:44.043Z,125.07
2019-01-31T08:03:11.993Z,121.22
2019-01-31T08:05:39.998Z,122.25
2019-01-31T08:08:07.957Z,125.20
2019-01-31T08:10:37.350Z,124.27
2019-01-31T08:13:25.749Z,116.97
2019-01-31T08:15:53.806Z,123.45
2019-01-31T08:18:21.718Z,117.08
2019-01-31T08:20:49.713Z,115.72
2019-01-31T08:23:17.625Z,115.40
2019-01-31T08:25:45.599Z,118.35
2019-01-31T08:28:13.633Z,118.93
2019-01-31T08:30:42.228Z,116.80
2019-01-31T08:35:52.374Z,118.85
2019-01-31T08:38:20.268Z,125.03
2019-01-31T08:40:48.256Z,121.07
2019-01-31T08:43:16.194Z,116.90
2019-01-31T08:45:46.712Z,126.25
2019-01-31T08:48:14.691Z,124.60
2019-01-31T08:50:42.750Z,127.92
2019-01-31T08:53:10.711Z,121.00
2019-01-31T08:55:38.739Z,124.22
2019-01-31T08:58:06.631Z,121.13
2019-01-31T09:00:34.603Z,122.13
2019-01-31T09:03:02.685Z,121.85
2019-01-31T09:05:30.666Z,121.33
2019-01-31T09:07:58.723Z,124.30
2019-01-31T09:10:28.007Z,119.70
2019-01-31T09:12:56.065Z,120.43
2019-01-31T09:15:24.485Z,126.50
2019-01-31T09:17:52.648Z,123.43
2019-01-31T09:20:39.660Z,120.17
2019-01-31T09:23:11.036Z,114.03
2019-01-31T09:25:57.988Z,115.60
2019-01-31T09:28:44.999Z,116.53
2019-01-31T09:31:32.016Z,116.10
2019-01-31T09:34:18.946Z,112.87
2019-01-31T09:37:05.921Z,119.17
2019-01-31T09:39:52.856Z,118.43
2019-01-31T09:42:39.855Z,128.33
2019-01-31T09:45:19.272Z,123.97
2019-01-31T09:47:59.336Z,119.47
2019-01-31T09:50:46.274Z,119.40
2019-01-31T09:53:33.282Z,116.33
2019-01-31T09:56:20.420Z,122.13
2019-01-31T09:59:07.551Z,120.43
2019-01-31T10:01:54.502Z,125.97
2019-01-31T10:04:25.262Z,117.17
2019-01-31T10:07:12.290Z,120.27
2019-01-31T10:09:59.376Z,118.87
2019-01-31T10:12:46.741Z,136.40
2019-01-31T10:15:33.850Z,125.83
2019-01-31T10:18:06.907Z,124.60
2019-01-31T10:20:53.840Z,119.60
2019-01-31T10:23:40.889Z,122.80
2019-01-31T10:26:27.857Z,119.80
2019-01-31T10:29:14.883Z,131.37
2019-01-31T10:32:01.821Z,121.90
2019-01-31T10:34:37.393Z,114.40
2019-01-31T10:37:24.454Z,116.67
2019-01-31T10:40:11.413Z,114.70
2019-01-31T10:42:52.324Z,114.00
2019-01-31T10:45:39.987Z,110.13
2019-01-31T10:51:02.518Z,118.37
2019-01-31T10:53:36.982Z,126.33
2019-01-31T10:56:23.984Z,122.37
2019-01-31T10:59:10.991Z,118.10
2019-01-31T11:01:58.004Z,105.57
2019-01-31T11:04:44.971Z,109.43
2019-01-31T11:07:31.952Z,115.23
2019-01-31T11:10:18.961Z,117.83
2019-01-31T11:13:01.081Z,112.23
2019-01-31T11:15:36.270Z,111.17
2019-01-31T11:18:09.149Z,110.30
2019-01-31T11:20:56.085Z,106.60
2019-01-31T11:23:43.381Z,111.03
2019-01-31T11:26:30.344Z,116.30
2019-01-31T11:29:17.350Z,115.33
2019-01-31T11:32:04.276Z,122.30
2019-01-31T11:34:51.223Z,118.90
2019-01-31T11:37:38.150Z,117.57
2019-01-31T11:40:25.169Z,118.20
2019-01-31T11:43:12.174Z,135.47
2019-01-31T11:45:59.205Z,120.30
2019-01-31T11:48:46.205Z,120.37
2019-01-31T11:51:33.242Z,118.60
2019-01-31T11:54:13.860Z,120.60
2019-01-31T11:57:05.439Z,122.33
2019-01-31T11:59:30.567Z,113.37
2019-01-31T12:01:58.451Z,119.80
2019-01-31T12:04:26.541Z,122.40
2019-01-31T12:06:54.493Z,118.67
2019-01-31T12:09:22.504Z,117.87
2019-01-31T12:11:50.736Z,119.90
2019-01-31T12:14:18.708Z,123.53
2019-01-31T12:16:46.692Z,113.73
2019-01-31T12:19:14.649Z,125.73
2019-01-31T12:21:42.631Z,119.37
2019-01-31T12:24:16.607Z,121.43
2019-01-31T12:26:40.452Z,120.50
2019-01-31T12:29:08.371Z,127.47
2019-01-31T12:31:36.725Z,114.57
2019-01-31T12:36:51.747Z,115.60
2019-01-31T12:39:19.715Z,119.00
2019-01-31T12:41:47.766Z,117.37
2019-01-31T12:44:15.756Z,114.47
2019-01-31T12:46:43.738Z,114.03
2019-01-31T12:49:11.701Z,110.27
2019-01-31T12:51:39.682Z,119.43
2019-01-31T12:54:07.728Z,115.40
2019-01-31T12:56:35.770Z,113.60
2019-01-31T12:59:22.721Z,111.33
2019-01-31T13:01:50.735Z,110.97
2019-01-31T13:04:20.632Z,117.40
2019-01-31T13:06:48.508Z,103.37
2019-01-31T13:09:16.441Z,109.77
2019-01-31T13:11:44.432Z,115.53
2019-01-31T13:14:12.398Z,112.80
2019-01-31T13:16:40.397Z,110.10
2019-01-31T13:19:08.844Z,105.97
2019-01-31T13:21:36.901Z,109.40
2019-01-31T13:24:05.038Z,130.10
2019-01-31T13:26:33.056Z,121.43
2019-01-31T13:29:20.605Z,125.70
2019-01-31T13:31:48.624Z,117.60
2019-01-31T13:34:16.794Z,125.73
2019-01-31T13:36:44.879Z,118.77
2019-01-31T13:39:16.454Z,117.50
2019-01-31T13:41:44.513Z,104.33
2019-01-31T13:44:12.721Z,112.97
2019-01-31T13:46:40.863Z,118.30
2019-01-31T13:49:08.942Z,113.37
2019-01-31T13:51:36.881Z,111.80
2019-01-31T13:54:05.687Z,113.27
2019-01-31T13:56:44.923Z,109.90
2019-01-31T13:59:16.996Z,105.77
2019-01-31T14:01:45.091Z,121.03
2019-01-31T14:04:13.040Z,133.70
2019-01-31T14:06:41.020Z,117.70
2019-01-31T14:09:09.683Z,109.07
2019-01-31T14:11:38.314Z,106.50
2019-01-31T14:14:09.028Z,106.50
2019-01-31T14:16:46.748Z,106.57
2019-01-31T14:19:06.087Z,104.47
2019-01-31T14:21:34.152Z,117.67
2019-01-31T14:24:02.389Z,119.20
2019-01-31T14:26:31.245Z,121.80
2019-01-31T14:28:59.663Z,117.03
2019-01-31T14:31:28.504Z,102.83
2019-01-31T14:33:57.382Z,104.77
2019-01-31T14:36:25.599Z,94.30
2019-01-31T14:38:54.294Z,94.20
2019-01-31T14:41:22.301Z,93.20
2019-01-31T14:43:50.369Z,95.97
2019-01-31T14:46:18.407Z,98.13
2019-01-31T14:48:46.405Z,108.97
2019-01-31T14:51:15.261Z,103.33
2019-01-31T14:53:43.312Z,104.83
2019-01-31T14:56:11.284Z,102.57
2019-01-31T14:58:39.696Z,106.83
2019-01-31T15:01:07.728Z,102.47
2019-01-31T15:03:35.872Z,100.50
2019-01-31T15:06:04.079Z,100.30
2019-01-31T15:08:32.042Z,102.83
2019-01-31T15:11:00.453Z,99.53
2019-01-31T15:13:28.466Z,102.73
2019-01-31T15:15:56.456Z,105.47
2019-01-31T15:18:24.639Z,158.77
2019-01-31T15:20:52.689Z,134.90
2019-01-31T15:23:20.621Z,116.83
2019-01-31T15:25:48.656Z,110.00
2019-01-31T15:28:16.664Z,101.07
2019-01-31T15:30:44.664Z,124.53
2019-01-31T15:33:13.381Z,124.43
2019-01-31T15:35:41.560Z,119.77
2019-01-31T15:38:09.504Z,109.63
2019-01-31T15:43:46.318Z,118.47
2019-01-31T15:46:14.285Z,123.07
2019-01-31T15:48:42.226Z,111.07
2019-01-31T15:51:10.408Z,117.17
2019-01-31T15:53:38.482Z,120.00
2019-01-31T15:56:07.369Z,105.30
2019-01-31T15:58:35.309Z,113.87
2019-01-31T16:04:05.882Z,107.57
2019-01-31T16:06:33.969Z,112.77
2019-01-31T16:09:01.881Z,108.10
2019-01-31T16:11:29.843Z,108.20
2019-01-31T16:13:57.873Z,108.20
2019-01-31T16:16:25.976Z,110.50
2019-01-31T16:18:54.017Z,119.13
2019-01-31T16:21:21.986Z,110.80
2019-01-31T16:23:50.028Z,117.50
2019-01-31T16:26:18.089Z,114.33
2019-01-31T16:28:46.092Z,111.13
2019-01-31T16:31:14.050Z,108.37
2019-01-31T16:33:42.092Z,109.30
2019-01-31T16:36:10.018Z,110.43
2019-01-31T16:38:37.915Z,115.80
2019-01-31T16:41:24.847Z,115.67
2019-01-31T16:43:52.810Z,113.20
2019-01-31T16:46:20.978Z,112.10
2019-01-31T16:48:48.944Z,113.23
2019-01-31T16:51:35.897Z,108.03
2019-01-31T16:54:03.832Z,109.20
2019-01-31T16:56:31.786Z,113.13
2019-01-31T16:58:59.785Z,126.87
2019-01-31T17:01:27.764Z,117.73
2019-01-31T17:03:55.743Z,122.73
2019-01-31T17:06:23.787Z,115.57
2019-01-31T17:08:51.893Z,119.90
2019-01-31T17:11:19.822Z,116.87
2019-01-31T17:13:47.795Z,118.83
2019-01-31T17:16:15.779Z,125.23
2019-01-31T17:18:43.839Z,117.37
2019-01-31T17:21:11.820Z,121.30
2019-01-31T17:23:39.873Z,134.03
2019-01-31T17:28:51.491Z,129.27
2019-01-31T17:31:19.444Z,124.37
2019-01-31T17:33:47.456Z,122.20
2019-01-31T17:36:15.425Z,125.43
2019-01-31T17:38:43.503Z,127.27
2019-01-31T17:41:11.429Z,125.77
2019-01-31T17:43:39.426Z,125.77
2019-01-31T17:48:51.966Z,125.13
2019-01-31T17:51:20.093Z,129.93
2019-01-31T17:53:48.070Z,125.77
2019-01-31T17:56:16.166Z,133.57
2019-01-31T17:58:44.119Z,127.97
2019-01-31T18:01:12.268Z,125.33
2019-01-31T18:03:40.254Z,126.80
2019-01-31T18:06:08.273Z,139.90
2019-01-31T18:08:36.611Z,123.60
2019-01-31T18:11:04.693Z,131.00
2019-01-31T18:13:32.753Z,126.85
2019-01-31T18:16:00.710Z,130.78
2019-01-31T18:18:28.811Z,128.68
2019-01-31T18:20:56.897Z,125.58
2019-01-31T18:23:24.826Z,127.80
2019-01-31T18:25:52.908Z,136.52
2019-01-31T18:28:20.859Z,131.27
2019-01-31T18:30:48.953Z,135.43
2019-01-31T18:33:16.933Z,131.32
2019-01-31T18:35:45.009Z,139.00
2019-01-31T18:38:13.092Z,132.07
2019-01-31T18:41:00.057Z,142.50
2019-01-31T18:43:28.099Z,129.82
2019-01-31T18:45:56.090Z,150.85
2019-01-31T18:51:06.189Z,150.68
2019-01-31T18:53:34.238Z,145.50
2019-01-31T18:56:15.495Z,143.30
2019-01-31T18:58:43.429Z,137.88
2019-01-31T19:01:11.497Z,137.15
2019-01-31T19:03:39.453Z,147.70
2019-01-31T19:06:07.409Z,143.23
2019-01-31T19:08:35.388Z,141.57
2019-01-31T19:11:03.329Z,135.57
2019-01-31T19:13:31.335Z,135.93
2019-01-31T19:16:05.236Z,136.77
2019-01-31T19:18:29.218Z,135.87
2019-01-31T19:20:57.190Z,136.77
2019-01-31T19:23:25.293Z,140.10
2019-01-31T19:25:53.356Z,139.85
2019-01-31T19:31:10.040Z,136.43
2019-01-31T19:33:38.004Z,145.20
2019-01-31T19:36:06.015Z,142.33
2019-01-31T19:38:34.032Z,141.03
2019-01-31T19:41:02.063Z,138.43
2019-01-31T19:43:30.109Z,141.43
2019-01-31T19:45:58.193Z,149.33
2019-01-31T19:48:26.232Z,139.43
2019-01-31T19:50:54.313Z,145.93
2019-01-31T19:53:22.281Z,134.03
2019-01-31T19:55:50.248Z,138.53
2019-01-31T19:58:18.226Z,141.40
2019-01-31T20:00:46.212Z,138.50
2019-01-31T20:03:14.296Z,141.70
2019-01-31T20:05:42.428Z,146.02
2019-01-31T20:08:11.220Z,133.77
2019-01-31T20:10:39.300Z,133.30
2019-01-31T20:13:07.549Z,146.93
2019-01-31T20:15:35.685Z,139.47
2019-01-31T20:18:03.709Z,140.57
2019-01-31T20:20:32.387Z,144.17
2019-01-31T20:23:00.966Z,141.30
2019-01-31T20:25:49.521Z,153.10
2019-01-31T20:28:17.722Z,148.77
2019-01-31T20:30:45.658Z,186.77
2019-01-31T20:33:13.665Z,170.77
2019-01-31T20:35:41.882Z,147.23
2019-01-31T20:38:09.883Z,136.53
2019-01-31T20:40:39.220Z,138.17
2019-01-31T20:43:07.628Z,143.00
2019-01-31T20:45:35.734Z,142.80
2019-01-31T20:48:03.892Z,149.60
2019-01-31T20:50:32.733Z,157.47
2019-01-31T20:53:00.749Z,150.07
2019-01-31T20:55:28.722Z,153.57
2019-01-31T20:57:56.729Z,146.97
2019-01-31T21:00:43.680Z,151.07
2019-01-31T21:03:11.876Z,142.03
2019-01-31T21:05:40.175Z,140.20
2019-01-31T21:08:08.691Z,134.90
2019-01-31T21:10:55.636Z,132.63
2019-01-31T21:13:23.663Z,136.97
2019-01-31T21:15:53.076Z,139.20
2019-01-31T21:18:21.336Z,139.72
2019-01-31T21:20:49.286Z,141.27
2019-01-31T21:23:17.342Z,113.90
2019-01-31T21:25:45.325Z,110.65
2019-01-31T21:28:13.391Z,108.15
2019-01-31T21:30:46.707Z,104.00
2019-01-31T21:33:14.767Z,108.17
2019-01-31T21:35:42.736Z,104.30
2019-01-31T21:38:10.809Z,109.07
2019-01-31T21:40:39.292Z,106.77
2019-01-31T21:43:07.435Z,119.13
2019-01-31T21:45:35.513Z,121.43
2019-01-31T21:48:03.725Z,124.40
2019-01-31T21:50:31.841Z,121.03
2019-01-31T21:53:00.096Z,128.63
2019-01-31T21:55:27.997Z,129.47
2019-01-31T21:57:56.105Z,125.70
2019-01-31T22:00:25.201Z,119.90
2019-01-31T22:02:53.302Z,143.25
2019-01-31T22:05:40.559Z,160.10
2019-01-31T22:08:08.642Z,117.37
2019-01-31T22:10:36.662Z,138.70
2019-01-31T22:13:04.870Z,112.70
2019-01-31T22:18:35.488Z,112.80
2019-01-31T22:21:03.384Z,108.67
2019-01-31T22:23:31.392Z,103.40
2019-01-31T22:25:59.336Z,108.92
2019-01-31T22:28:27.595Z,108.15
2019-01-31T22:31:14.629Z,110.55
2019-01-31T22:33:42.752Z,111.88
2019-01-31T22:36:10.666Z,102.47
2019-01-31T22:38:38.642Z,103.03
2019-01-31T22:41:06.750Z,104.13
2019-01-31T22:43:34.698Z,110.35
2019-01-31T22:46:02.642Z,107.32
2019-01-31T22:48:30.811Z,107.67
2019-01-31T22:50:58.816Z,102.03
2019-01-31T22:53:26.761Z,109.72
2019-01-31T22:55:54.741Z,106.40
2019-01-31T22:58:22.690Z,108.93
2019-01-31T23:01:28.627Z,127.47
2019-01-31T23:03:56.555Z,104.80
2019-01-31T23:06:24.816Z,99.87
2019-01-31T23:08:52.869Z,109.55
2019-01-31T23:11:21.024Z,102.92
2019-01-31T23:13:49.069Z,105.07
2019-01-31T23:16:17.090Z,105.50
2019-01-31T23:18:45.067Z,107.70
2019-01-31T23:21:13.177Z,102.60
2019-01-31T23:23:41.214Z,106.67
2019-01-31T23:26:09.338Z,108.33
2019-01-31T23:28:37.459Z,111.70
2019-01-31T23:31:05.541Z,108.50
2019-01-31T23:33:33.481Z,105.07
2019-01-31T23:36:01.464Z,104.27
2019-01-31T23:38:29.441Z,103.00
2019-01-31T23:40:57.405Z,103.77
2019-01-31T23:43:25.371Z,101.37
2019-01-31T23:45:53.320Z,109.53
2019-01-31T23:48:21.412Z,116.80
2019-01-31T23:50:49.366Z,114.10
2019-01-31T23:53:17.317Z,107.23
2019-01-31T23:56:04.265Z,114.97
2019-01-31T23:58:32.348Z,108.80
